sensor_id;sensor_type;location;lat;lon;timestamp;pressure;altitude;pressure_sealevel;temperature;humidity
20077;BME280;12348;42.710;23.378;2022-10-31T00:00:07;95602.38;;;12.44;100.00
20077;BME280;12348;42.710;23.378;2022-10-31T00:02:34;95608.06;;;12.43;100.00
20077;BME280;12348;42.710;23.378;2022-10-31T00:05:05;95613.16;;;12.25;100.00
20077;BME280;12348;42.710;23.378;2022-10-31T00:07:33;95607.78;;;12.20;100.00
20077;BME280;12348;42.710;23.378;2022-10-31T00:10:00;95604.81;;;12.22;100.00
20077;BME280;12348;42.710;23.378;2022-10-31T00:12:27;95598.16;;;12.14;100.00
20077;BME280;12348;42.710;23.378;2022-10-31T00:14:54;95598.19;;;12.09;100.00
20077;BME280;12348;42.710;23.378;2022-10-31T00:17:20;95604.94;;;12.11;100.00
20077;BME280;12348;42.710;23.378;2022-10-31T00:19:47;95612.16;;;12.16;100.00
20077;BME280;12348;42.710;23.378;2022-10-31T00:22:14;95607.31;;;12.13;100.00
20077;BME280;12348;42.710;23.378;2022-10-31T00:24:43;95610.63;;;12.10;100.00
20077;BME280;12348;42.710;23.378;2022-10-31T00:27:10;95611.22;;;12.02;100.00
20077;BME280;12348;42.710;23.378;2022-10-31T00:29:37;95601.59;;;11.96;100.00
20077;BME280;12348;42.710;23.378;2022-10-31T00:32:04;95606.81;;;11.82;100.00
20077;BME280;12348;42.710;23.378;2022-10-31T00:34:31;95602.78;;;11.79;100.00
20077;BME280;12348;42.710;23.378;2022-10-31T00:36:58;95606.66;;;11.73;100.00
20077;BME280;12348;42.710;23.378;2022-10-31T00:39:24;95606.25;;;11.56;100.00
20077;BME280;12348;42.710;23.378;2022-10-31T00:41:52;95609.03;;;11.51;100.00
20077;BME280;12348;42.710;23.378;2022-10-31T00:44:19;95600.94;;;11.51;100.00
20077;BME280;12348;42.710;23.378;2022-10-31T00:46:46;95600.44;;;11.44;100.00
20077;BME280;12348;42.710;23.378;2022-10-31T00:49:13;95605.84;;;11.44;100.00
20077;BME280;12348;42.710;23.378;2022-10-31T00:51:39;95612.34;;;11.37;100.00
20077;BME280;12348;42.710;23.378;2022-10-31T00:54:06;95612.34;;;11.37;100.00
20077;BME280;12348;42.710;23.378;2022-10-31T00:56:33;95608.19;;;11.21;100.00
20077;BME280;12348;42.710;23.378;2022-10-31T00:59:01;95610.59;;;11.23;100.00
20077;BME280;12348;42.710;23.378;2022-10-31T01:01:28;95611.06;;;10.96;100.00
20077;BME280;12348;42.710;23.378;2022-10-31T01:03:55;95607.81;;;10.93;100.00
20077;BME280;12348;42.710;23.378;2022-10-31T01:06:22;95602.94;;;11.01;100.00
20077;BME280;12348;42.710;23.378;2022-10-31T01:08:50;95606.16;;;10.98;100.00
20077;BME280;12348;42.710;23.378;2022-10-31T01:11:19;95611.84;;;10.96;100.00
20077;BME280;12348;42.710;23.378;2022-10-31T01:13:47;95609.47;;;10.89;100.00
20077;BME280;12348;42.710;23.378;2022-10-31T01:16:18;95611.66;;;10.82;100.00
20077;BME280;12348;42.710;23.378;2022-10-31T01:18:46;95607.72;;;10.70;100.00
20077;BME280;12348;42.710;23.378;2022-10-31T01:21:15;95613.91;;;10.70;100.00
20077;BME280;12348;42.710;23.378;2022-10-31T01:23:42;95620.38;;;10.64;100.00
20077;BME280;12348;42.710;23.378;2022-10-31T01:26:11;95629.03;;;10.61;100.00
20077;BME280;12348;42.710;23.378;2022-10-31T01:28:43;95624.19;;;10.58;100.00
20077;BME280;12348;42.710;23.378;2022-10-31T01:31:10;95629.59;;;10.53;100.00
20077;BME280;12348;42.710;23.378;2022-10-31T01:33:39;95628.53;;;10.49;100.00
20077;BME280;12348;42.710;23.378;2022-10-31T01:36:17;95622.97;;;10.30;100.00
20077;BME280;12348;42.710;23.378;2022-10-31T01:38:45;95623.78;;;10.25;100.00
20077;BME280;12348;42.710;23.378;2022-10-31T01:41:13;95619.47;;;10.19;100.00
20077;BME280;12348;42.710;23.378;2022-10-31T01:43:46;95621.69;;;10.07;100.00
20077;BME280;12348;42.710;23.378;2022-10-31T01:46:13;95636.00;;;9.87;100.00
20077;BME280;12348;42.710;23.378;2022-10-31T01:48:44;95627.16;;;9.61;100.00
20077;BME280;12348;42.710;23.378;2022-10-31T01:51:12;95616.69;;;9.44;100.00
20077;BME280;12348;42.710;23.378;2022-10-31T01:53:40;95627.97;;;9.46;100.00
20077;BME280;12348;42.710;23.378;2022-10-31T01:56:08;95618.81;;;9.52;100.00
20077;BME280;12348;42.710;23.378;2022-10-31T01:58:35;95622.03;;;9.59;100.00
20077;BME280;12348;42.710;23.378;2022-10-31T02:01:03;95615.03;;;9.63;100.00
20077;BME280;12348;42.710;23.378;2022-10-31T02:03:30;95618.00;;;9.72;100.00
20077;BME280;12348;42.710;23.378;2022-10-31T02:05:59;95622.56;;;9.71;100.00
20077;BME280;12348;42.710;23.378;2022-10-31T02:08:27;95609.34;;;9.85;100.00
20077;BME280;12348;42.710;23.378;2022-10-31T02:10:54;95611.78;;;9.87;100.00
20077;BME280;12348;42.710;23.378;2022-10-31T02:13:22;95621.19;;;9.94;100.00
20077;BME280;12348;42.710;23.378;2022-10-31T02:15:51;95634.66;;;9.74;100.00
20077;BME280;12348;42.710;23.378;2022-10-31T02:18:19;95623.34;;;9.77;100.00
20077;BME280;12348;42.710;23.378;2022-10-31T02:20:55;95628.75;;;9.77;100.00
20077;BME280;12348;42.710;23.378;2022-10-31T02:27:07;95631.94;;;9.84;100.00
20077;BME280;12348;42.710;23.378;2022-10-31T02:29:56;95636.25;;;9.90;100.00
20077;BME280;12348;42.710;23.378;2022-10-31T02:32:38;95641.88;;;9.89;100.00
20077;BME280;12348;42.710;23.378;2022-10-31T02:35:11;95645.41;;;9.84;100.00
20077;BME280;12348;42.710;23.378;2022-10-31T02:37:44;95648.91;;;9.75;100.00
20077;BME280;12348;42.710;23.378;2022-10-31T02:40:17;95651.34;;;9.71;100.00
20077;BME280;12348;42.710;23.378;2022-10-31T02:42:51;95648.38;;;9.78;100.00
20077;BME280;12348;42.710;23.378;2022-10-31T02:45:27;95644.59;;;9.84;100.00
20077;BME280;12348;42.710;23.378;2022-10-31T02:48:00;95651.84;;;9.78;100.00
20077;BME280;12348;42.710;23.378;2022-10-31T02:50:31;95646.22;;;9.80;100.00
20077;BME280;12348;42.710;23.378;2022-10-31T02:53:00;95644.31;;;9.90;100.00
20077;BME280;12348;42.710;23.378;2022-10-31T02:55:47;95651.84;;;9.88;100.00
20077;BME280;12348;42.710;23.378;2022-10-31T02:58:18;95651.84;;;9.88;100.00
20077;BME280;12348;42.710;23.378;2022-10-31T03:01:01;95663.94;;;9.96;100.00
20077;BME280;12348;42.710;23.378;2022-10-31T03:03:45;95654.81;;;9.97;100.00
20077;BME280;12348;42.710;23.378;2022-10-31T03:06:20;95656.69;;;9.91;100.00
20077;BME280;12348;42.710;23.378;2022-10-31T03:08:55;95662.34;;;9.90;100.00
20077;BME280;12348;42.710;23.378;2022-10-31T03:11:32;95653.22;;;9.76;100.00
20077;BME280;12348;42.710;23.378;2022-10-31T03:14:08;95664.25;;;9.79;100.00
20077;BME280;12348;42.710;23.378;2022-10-31T03:16:40;95659.38;;;9.81;100.00
20077;BME280;12348;42.710;23.378;2022-10-31T03:19:16;95658.03;;;9.84;100.00
20077;BME280;12348;42.710;23.378;2022-10-31T03:21:45;95656.13;;;9.89;100.00
20077;BME280;12348;42.710;23.378;2022-10-31T03:24:14;95658.03;;;9.94;100.00
20077;BME280;12348;42.710;23.378;2022-10-31T03:26:45;95664.72;;;9.96;100.00
20077;BME280;12348;42.710;23.378;2022-10-31T03:29:15;95662.56;;;10.04;100.00
20077;BME280;12348;42.710;23.378;2022-10-31T03:31:46;95655.56;;;10.08;100.00
20077;BME280;12348;42.710;23.378;2022-10-31T03:34:19;95666.84;;;10.15;100.00
20077;BME280;12348;42.710;23.378;2022-10-31T03:36:48;95667.38;;;10.22;100.00
20077;BME280;12348;42.710;23.378;2022-10-31T03:39:19;95666.84;;;10.35;100.00
20077;BME280;12348;42.710;23.378;2022-10-31T03:41:49;95672.75;;;10.42;100.00
20077;BME280;12348;42.710;23.378;2022-10-31T03:44:21;95674.59;;;10.47;100.00
20077;BME280;12348;42.710;23.378;2022-10-31T03:46:49;95676.47;;;10.52;100.00
20077;BME280;12348;42.710;23.378;2022-10-31T03:49:18;95676.19;;;10.53;100.00
20077;BME280;12348;42.710;23.378;2022-10-31T03:51:49;95673.81;;;10.36;100.00
20077;BME280;12348;42.710;23.378;2022-10-31T03:54:23;95676.25;;;10.23;100.00
20077;BME280;12348;42.710;23.378;2022-10-31T03:56:53;95677.88;;;10.29;100.00
20077;BME280;12348;42.710;23.378;2022-10-31T03:59:24;95685.41;;;10.27;100.00
20077;BME280;12348;42.710;23.378;2022-10-31T04:01:57;95681.91;;;10.21;100.00
20077;BME280;12348;42.710;23.378;2022-10-31T04:04:27;95684.63;;;10.11;100.00
20077;BME280;12348;42.710;23.378;2022-10-31T04:06:56;95687.59;;;9.99;100.00
20077;BME280;12348;42.710;23.378;2022-10-31T04:09:25;95685.72;;;10.05;100.00
20077;BME280;12348;42.710;23.378;2022-10-31T04:11:54;95687.06;;;10.02;100.00
20077;BME280;12348;42.710;23.378;2022-10-31T04:14:24;95693.28;;;9.98;100.00
20077;BME280;12348;42.710;23.378;2022-10-31T04:16:52;95691.94;;;9.90;100.00
20077;BME280;12348;42.710;23.378;2022-10-31T04:19:19;95690.84;;;9.96;100.00
20077;BME280;12348;42.710;23.378;2022-10-31T04:21:47;95692.44;;;10.02;100.00
20077;BME280;12348;42.710;23.378;2022-10-31T04:24:14;95691.91;;;10.00;100.00
20077;BME280;12348;42.710;23.378;2022-10-31T04:26:41;95700.53;;;9.97;100.00
20077;BME280;12348;42.710;23.378;2022-10-31T04:29:09;95697.31;;;9.90;100.00
20077;BME280;12348;42.710;23.378;2022-10-31T04:31:35;95696.75;;;9.93;100.00
20077;BME280;12348;42.710;23.378;2022-10-31T04:34:02;95693.28;;;9.87;100.00
20077;BME280;12348;42.710;23.378;2022-10-31T04:36:29;95691.69;;;9.86;100.00
20077;BME280;12348;42.710;23.378;2022-10-31T04:38:57;95698.09;;;9.85;100.00
20077;BME280;12348;42.710;23.378;2022-10-31T04:41:24;95699.19;;;9.84;100.00
20077;BME280;12348;42.710;23.378;2022-10-31T04:43:51;95707.53;;;9.83;100.00
20077;BME280;12348;42.710;23.378;2022-10-31T04:46:17;95706.75;;;9.82;100.00
20077;BME280;12348;42.710;23.378;2022-10-31T04:48:44;95715.34;;;9.64;100.00
20077;BME280;12348;42.710;23.378;2022-10-31T04:51:11;95707.00;;;9.55;100.00
20077;BME280;12348;42.710;23.378;2022-10-31T04:53:38;95719.63;;;9.39;100.00
20077;BME280;12348;42.710;23.378;2022-10-31T04:56:06;95713.72;;;9.42;100.00
20077;BME280;12348;42.710;23.378;2022-10-31T04:58:33;95718.81;;;9.44;100.00
20077;BME280;12348;42.710;23.378;2022-10-31T05:01:00;95717.47;;;9.52;100.00
20077;BME280;12348;42.710;23.378;2022-10-31T05:03:26;95710.50;;;9.61;100.00
20077;BME280;12348;42.710;23.378;2022-10-31T05:05:54;95712.91;;;9.62;100.00
20077;BME280;12348;42.710;23.378;2022-10-31T05:08:21;95715.63;;;9.67;100.00
20077;BME280;12348;42.710;23.378;2022-10-31T05:10:48;95713.97;;;9.92;100.00
20077;BME280;12348;42.710;23.378;2022-10-31T05:13:17;95726.63;;;10.27;100.00
20077;BME280;12348;42.710;23.378;2022-10-31T05:15:44;95728.00;;;10.95;100.00
20077;BME280;12348;42.710;23.378;2022-10-31T05:18:11;95731.78;;;11.77;100.00
20077;BME280;12348;42.710;23.378;2022-10-31T05:20:37;95740.63;;;12.46;100.00
20077;BME280;12348;42.710;23.378;2022-10-31T05:23:04;95744.19;;;13.14;100.00
20077;BME280;12348;42.710;23.378;2022-10-31T05:25:31;95745.94;;;13.04;100.00
20077;BME280;12348;42.710;23.378;2022-10-31T05:27:58;95742.66;;;12.83;100.00
20077;BME280;12348;42.710;23.378;2022-10-31T05:30:27;95743.16;;;12.37;100.00
20077;BME280;12348;42.710;23.378;2022-10-31T05:32:54;95750.28;;;11.94;100.00
20077;BME280;12348;42.710;23.378;2022-10-31T05:35:23;95747.16;;;11.37;100.00
20077;BME280;12348;42.710;23.378;2022-10-31T05:37:49;95754.88;;;11.05;100.00
20077;BME280;12348;42.710;23.378;2022-10-31T05:40:18;95748.28;;;10.77;100.00
20077;BME280;12348;42.710;23.378;2022-10-31T05:42:45;95751.78;;;10.77;100.00
20077;BME280;12348;42.710;23.378;2022-10-31T05:45:14;95752.69;;;11.17;100.00
20077;BME280;12348;42.710;23.378;2022-10-31T05:47:50;95759.34;;;11.74;100.00
20077;BME280;12348;42.710;23.378;2022-10-31T05:50:16;95763.16;;;13.32;100.00
20077;BME280;12348;42.710;23.378;2022-10-31T05:52:43;95759.06;;;15.26;100.00
20077;BME280;12348;42.710;23.378;2022-10-31T05:55:11;95752.38;;;15.96;88.88
20077;BME280;12348;42.710;23.378;2022-10-31T05:57:38;95764.31;;;16.93;80.04
20077;BME280;12348;42.710;23.378;2022-10-31T06:00:05;95765.38;;;17.24;77.82
20077;BME280;12348;42.710;23.378;2022-10-31T06:02:33;95766.16;;;17.90;74.29
20077;BME280;12348;42.710;23.378;2022-10-31T06:05:01;95761.97;;;18.27;70.58
20077;BME280;12348;42.710;23.378;2022-10-31T06:07:32;95765.16;;;18.38;69.58
20077;BME280;12348;42.710;23.378;2022-10-31T06:09:59;95772.22;;;18.30;70.94
20077;BME280;12348;42.710;23.378;2022-10-31T06:12:25;95768.69;;;19.03;66.20
20077;BME280;12348;42.710;23.378;2022-10-31T06:14:52;95772.50;;;18.55;68.24
20077;BME280;12348;42.710;23.378;2022-10-31T06:17:19;95772.94;;;19.21;65.04
20077;BME280;12348;42.710;23.378;2022-10-31T06:19:45;95772.16;;;20.34;58.58
20077;BME280;12348;42.710;23.378;2022-10-31T06:22:14;95780.59;;;20.29;59.25
20077;BME280;12348;42.710;23.378;2022-10-31T06:24:40;95786.22;;;19.31;62.38
20077;BME280;12348;42.710;23.378;2022-10-31T06:27:07;95790.78;;;19.48;63.32
20077;BME280;12348;42.710;23.378;2022-10-31T06:29:34;95791.72;;;20.24;59.37
20077;BME280;12348;42.710;23.378;2022-10-31T06:32:00;95798.72;;;21.98;52.22
20077;BME280;12348;42.710;23.378;2022-10-31T06:34:27;95784.84;;;21.29;53.26
20077;BME280;12348;42.710;23.378;2022-10-31T06:36:54;95788.38;;;21.18;54.45
20077;BME280;12348;42.710;23.378;2022-10-31T06:39:23;95799.72;;;22.30;50.90
20077;BME280;12348;42.710;23.378;2022-10-31T06:41:50;95797.97;;;21.85;51.58
20077;BME280;12348;42.710;23.378;2022-10-31T06:44:16;95799.22;;;21.75;52.06
20077;BME280;12348;42.710;23.378;2022-10-31T06:46:46;95799.91;;;21.85;51.79
20077;BME280;12348;42.710;23.378;2022-10-31T06:49:13;95806.56;;;22.24;50.47
20077;BME280;12348;42.710;23.378;2022-10-31T06:51:39;95798.28;;;21.84;52.72
20077;BME280;12348;42.710;23.378;2022-10-31T06:54:06;95800.16;;;22.60;49.09
20077;BME280;12348;42.710;23.378;2022-10-31T06:56:35;95798.28;;;23.87;46.90
20077;BME280;12348;42.710;23.378;2022-10-31T06:59:02;95799.63;;;23.30;46.60
20077;BME280;12348;42.710;23.378;2022-10-31T07:01:29;95803.72;;;23.05;47.49
20077;BME280;12348;42.710;23.378;2022-10-31T07:03:55;95801.25;;;24.91;43.60
20077;BME280;12348;42.710;23.378;2022-10-31T07:06:22;95799.97;;;24.66;43.37
20077;BME280;12348;42.710;23.378;2022-10-31T07:08:49;95798.06;;;23.29;46.47
20077;BME280;12348;42.710;23.378;2022-10-31T07:11:15;95807.50;;;22.56;50.06
20077;BME280;12348;42.710;23.378;2022-10-31T07:13:44;95800.81;;;22.41;50.59
20077;BME280;12348;42.710;23.378;2022-10-31T07:16:11;95805.41;;;22.37;50.74
20077;BME280;12348;42.710;23.378;2022-10-31T07:18:39;95797.72;;;23.31;48.20
20077;BME280;12348;42.710;23.378;2022-10-31T07:21:06;95789.81;;;23.29;48.04
20077;BME280;12348;42.710;23.378;2022-10-31T07:23:33;95786.88;;;23.06;48.46
20077;BME280;12348;42.710;23.378;2022-10-31T07:25:59;95785.25;;;22.45;50.76
20077;BME280;12348;42.710;23.378;2022-10-31T07:28:26;95780.25;;;22.63;50.83
20077;BME280;12348;42.710;23.378;2022-10-31T07:30:56;95781.34;;;22.46;50.74
20077;BME280;12348;42.710;23.378;2022-10-31T07:33:24;95777.66;;;23.30;48.84
20077;BME280;12348;42.710;23.378;2022-10-31T07:35:52;95786.59;;;23.59;47.68
20077;BME280;12348;42.710;23.378;2022-10-31T07:38:18;95779.09;;;25.30;44.69
20077;BME280;12348;42.710;23.378;2022-10-31T07:40:49;95780.56;;;25.24;43.50
20077;BME280;12348;42.710;23.378;2022-10-31T07:43:17;95774.81;;;24.90;44.37
20077;BME280;12348;42.710;23.378;2022-10-31T07:45:44;95773.22;;;25.81;43.47
20077;BME280;12348;42.710;23.378;2022-10-31T07:48:16;95787.13;;;25.89;42.61
20077;BME280;12348;42.710;23.378;2022-10-31T07:50:43;95775.03;;;25.24;43.64
20077;BME280;12348;42.710;23.378;2022-10-31T07:53:11;95770.47;;;24.89;45.09
20077;BME280;12348;42.710;23.378;2022-10-31T07:55:38;95770.13;;;24.91;45.21
20077;BME280;12348;42.710;23.378;2022-10-31T07:58:06;95784.00;;;25.18;43.47
20077;BME280;12348;42.710;23.378;2022-10-31T08:00:35;95777.88;;;25.77;43.14
20077;BME280;12348;42.710;23.378;2022-10-31T08:03:04;95779.53;;;25.32;44.29
20077;BME280;12348;42.710;23.378;2022-10-31T08:05:33;95779.41;;;26.31;42.69
20077;BME280;12348;42.710;23.378;2022-10-31T08:08:01;95780.88;;;27.23;41.22
20077;BME280;12348;42.710;23.378;2022-10-31T08:10:28;95777.09;;;26.33;42.23
20077;BME280;12348;42.710;23.378;2022-10-31T08:12:55;95780.63;;;25.77;43.87
20077;BME280;12348;42.710;23.378;2022-10-31T08:15:23;95778.41;;;24.91;44.98
20077;BME280;12348;42.710;23.378;2022-10-31T08:17:50;95772.97;;;25.41;44.99
20077;BME280;12348;42.710;23.378;2022-10-31T08:20:16;95774.16;;;25.43;44.67
20077;BME280;12348;42.710;23.378;2022-10-31T08:22:52;95775.16;;;25.31;44.69
20077;BME280;12348;42.710;23.378;2022-10-31T08:25:19;95772.34;;;24.62;46.99
20077;BME280;12348;42.710;23.378;2022-10-31T08:27:49;95777.66;;;25.13;45.54
20077;BME280;12348;42.710;23.378;2022-10-31T08:30:15;95774.13;;;25.89;44.55
20077;BME280;12348;42.710;23.378;2022-10-31T08:32:42;95763.53;;;25.42;44.61
20077;BME280;12348;42.710;23.378;2022-10-31T08:35:09;95768.00;;;27.00;40.99
20077;BME280;12348;42.710;23.378;2022-10-31T08:37:37;95767.88;;;27.27;40.62
20077;BME280;12348;42.710;23.378;2022-10-31T08:40:06;95766.88;;;26.38;41.63
20077;BME280;12348;42.710;23.378;2022-10-31T08:42:33;95764.97;;;27.13;41.03
20077;BME280;12348;42.710;23.378;2022-10-31T08:45:00;95771.22;;;27.50;40.27
20077;BME280;12348;42.710;23.378;2022-10-31T08:47:26;95761.41;;;27.57;40.02
20077;BME280;12348;42.710;23.378;2022-10-31T08:49:54;95761.34;;;27.49;40.15
20077;BME280;12348;42.710;23.378;2022-10-31T08:52:22;95755.44;;;28.10;39.52
20077;BME280;12348;42.710;23.378;2022-10-31T08:54:50;95764.94;;;28.12;38.97
20077;BME280;12348;42.710;23.378;2022-10-31T08:57:18;95767.09;;;27.78;39.07
20077;BME280;12348;42.710;23.378;2022-10-31T08:59:44;95763.00;;;25.59;42.74
20077;BME280;12348;42.710;23.378;2022-10-31T09:02:11;95774.31;;;25.77;43.40
20077;BME280;12348;42.710;23.378;2022-10-31T09:04:38;95766.22;;;25.87;43.57
20077;BME280;12348;42.710;23.378;2022-10-31T09:07:05;95763.66;;;25.03;44.08
20077;BME280;12348;42.710;23.378;2022-10-31T09:09:31;95764.19;;;24.89;45.40
20077;BME280;12348;42.710;23.378;2022-10-31T09:11:58;95763.38;;;24.46;46.86
20077;BME280;12348;42.710;23.378;2022-10-31T09:14:26;95756.75;;;24.12;49.10
20077;BME280;12348;42.710;23.378;2022-10-31T09:16:53;95758.75;;;25.65;45.52
20077;BME280;12348;42.710;23.378;2022-10-31T09:19:20;95747.81;;;25.99;43.66
20077;BME280;12348;42.710;23.378;2022-10-31T09:21:47;95754.50;;;26.28;43.11
20077;BME280;12348;42.710;23.378;2022-10-31T09:24:14;95754.06;;;26.22;43.24
20077;BME280;12348;42.710;23.378;2022-10-31T09:26:41;95749.50;;;26.67;41.88
20077;BME280;12348;42.710;23.378;2022-10-31T09:29:07;95754.22;;;27.52;40.41
20077;BME280;12348;42.710;23.378;2022-10-31T09:31:36;95746.94;;;27.81;39.63
20077;BME280;12348;42.710;23.378;2022-10-31T09:34:03;95753.34;;;27.00;41.15
20077;BME280;12348;42.710;23.378;2022-10-31T09:36:30;95755.59;;;28.42;39.82
20077;BME280;12348;42.710;23.378;2022-10-31T09:38:57;95758.56;;;28.01;39.35
20077;BME280;12348;42.710;23.378;2022-10-31T09:41:28;95749.13;;;27.58;40.88
20077;BME280;12348;42.710;23.378;2022-10-31T09:44:01;95746.97;;;26.92;42.20
20077;BME280;12348;42.710;23.378;2022-10-31T09:46:40;95739.56;;;27.03;41.23
20077;BME280;12348;42.710;23.378;2022-10-31T09:49:34;95738.44;;;27.52;40.55
20077;BME280;12348;42.710;23.378;2022-10-31T09:52:11;95732.28;;;27.25;41.63
20077;BME280;12348;42.710;23.378;2022-10-31T09:54:43;95737.59;;;27.45;40.65
20077;BME280;12348;42.710;23.378;2022-10-31T09:57:14;95733.91;;;27.82;40.99
20077;BME280;12348;42.710;23.378;2022-10-31T09:59:43;95738.97;;;28.38;39.06
20077;BME280;12348;42.710;23.378;2022-10-31T10:02:17;95729.31;;;28.14;39.37
20077;BME280;12348;42.710;23.378;2022-10-31T10:04:50;95729.38;;;27.59;40.11
20077;BME280;12348;42.710;23.378;2022-10-31T10:07:24;95721.63;;;27.75;39.92
20077;BME280;12348;42.710;23.378;2022-10-31T10:09:53;95716.50;;;27.85;39.55
20077;BME280;12348;42.710;23.378;2022-10-31T10:12:33;95716.75;;;27.62;40.15
20077;BME280;12348;42.710;23.378;2022-10-31T10:15:36;95711.91;;;27.03;41.06
20077;BME280;12348;42.710;23.378;2022-10-31T10:18:14;95716.06;;;26.79;42.23
20077;BME280;12348;42.710;23.378;2022-10-31T10:20:56;95703.66;;;27.55;40.50
20077;BME280;12348;42.710;23.378;2022-10-31T10:23:36;95702.88;;;27.58;40.36
20077;BME280;12348;42.710;23.378;2022-10-31T10:26:15;95698.63;;;27.71;40.32
20077;BME280;12348;42.710;23.378;2022-10-31T10:28:45;95694.41;;;27.92;40.00
20077;BME280;12348;42.710;23.378;2022-10-31T10:31:15;95694.56;;;28.27;39.15
20077;BME280;12348;42.710;23.378;2022-10-31T10:33:58;95689.91;;;28.42;38.46
20077;BME280;12348;42.710;23.378;2022-10-31T10:36:32;95689.19;;;28.92;38.45
20077;BME280;12348;42.710;23.378;2022-10-31T10:39:04;95685.97;;;28.50;37.68
20077;BME280;12348;42.710;23.378;2022-10-31T10:41:34;95678.03;;;28.60;37.36
20077;BME280;12348;42.710;23.378;2022-10-31T10:44:07;95669.53;;;27.99;38.14
20077;BME280;12348;42.710;23.378;2022-10-31T10:46:40;95673.31;;;28.64;36.75
20077;BME280;12348;42.710;23.378;2022-10-31T10:49:32;95665.84;;;29.00;36.45
20077;BME280;12348;42.710;23.378;2022-10-31T10:52:06;95663.00;;;28.68;37.49
20077;BME280;12348;42.710;23.378;2022-10-31T10:54:56;95668.63;;;29.07;36.57
20077;BME280;12348;42.710;23.378;2022-10-31T10:57:52;95665.41;;;28.62;37.13
20077;BME280;12348;42.710;23.378;2022-10-31T11:00:23;95665.41;;;27.71;38.40
20077;BME280;12348;42.710;23.378;2022-10-31T11:02:50;95655.25;;;27.24;39.38
20077;BME280;12348;42.710;23.378;2022-10-31T11:05:24;95654.63;;;27.52;39.81
20077;BME280;12348;42.710;23.378;2022-10-31T11:07:51;95655.88;;;27.10;40.55
20077;BME280;12348;42.710;23.378;2022-10-31T11:10:18;95644.94;;;27.83;39.07
20077;BME280;12348;42.710;23.378;2022-10-31T11:12:58;95653.41;;;28.26;37.62
20077;BME280;12348;42.710;23.378;2022-10-31T11:15:26;95643.19;;;28.41;37.57
20077;BME280;12348;42.710;23.378;2022-10-31T11:17:55;95645.22;;;28.65;36.59
20077;BME280;12348;42.710;23.378;2022-10-31T11:20:33;95637.56;;;28.23;37.09
20077;BME280;12348;42.710;23.378;2022-10-31T11:23:03;95645.28;;;27.74;38.33
20077;BME280;12348;42.710;23.378;2022-10-31T11:25:31;95633.28;;;28.40;38.00
20077;BME280;12348;42.710;23.378;2022-10-31T11:28:02;95630.91;;;28.45;37.17
20077;BME280;12348;42.710;23.378;2022-10-31T11:30:30;95633.50;;;27.95;37.89
20077;BME280;12348;42.710;23.378;2022-10-31T11:33:01;95632.84;;;28.34;37.06
20077;BME280;12348;42.710;23.378;2022-10-31T11:35:29;95623.31;;;28.21;37.50
20077;BME280;12348;42.710;23.378;2022-10-31T11:37:58;95623.88;;;27.68;37.83
20077;BME280;12348;42.710;23.378;2022-10-31T11:40:27;95626.09;;;27.41;38.00
20077;BME280;12348;42.710;23.378;2022-10-31T11:42:56;95614.75;;;27.01;38.52
20077;BME280;12348;42.710;23.378;2022-10-31T11:45:32;95617.00;;;26.89;38.97
20077;BME280;12348;42.710;23.378;2022-10-31T11:48:00;95609.91;;;27.43;38.38
20077;BME280;12348;42.710;23.378;2022-10-31T11:50:34;95609.63;;;27.62;38.72
20077;BME280;12348;42.710;23.378;2022-10-31T11:53:04;95599.94;;;28.08;37.38
20077;BME280;12348;42.710;23.378;2022-10-31T11:55:39;95606.25;;;28.12;36.86
20077;BME280;12348;42.710;23.378;2022-10-31T11:58:20;95600.59;;;26.58;38.83
20077;BME280;12348;42.710;23.378;2022-10-31T12:00:49;95593.63;;;27.27;38.62
20077;BME280;12348;42.710;23.378;2022-10-31T12:03:29;95597.69;;;27.47;37.70
20077;BME280;12348;42.710;23.378;2022-10-31T12:06:03;95594.81;;;27.29;37.92
20077;BME280;12348;42.710;23.378;2022-10-31T12:08:33;95592.19;;;27.58;37.70
20077;BME280;12348;42.710;23.378;2022-10-31T12:11:07;95604.03;;;27.51;37.72
20077;BME280;12348;42.710;23.378;2022-10-31T12:13:39;95598.81;;;27.36;38.02
20077;BME280;12348;42.710;23.378;2022-10-31T12:16:21;95591.22;;;27.22;38.60
20077;BME280;12348;42.710;23.378;2022-10-31T12:18:57;95586.25;;;27.49;38.12
20077;BME280;12348;42.710;23.378;2022-10-31T12:21:38;95589.88;;;27.71;37.28
20077;BME280;12348;42.710;23.378;2022-10-31T12:24:16;95593.13;;;27.80;37.28
20077;BME280;12348;42.710;23.378;2022-10-31T12:26:54;95589.81;;;27.53;37.84
20077;BME280;12348;42.710;23.378;2022-10-31T12:29:34;95587.59;;;26.59;38.72
20077;BME280;12348;42.710;23.378;2022-10-31T12:32:17;95588.88;;;26.72;39.39
20077;BME280;12348;42.710;23.378;2022-10-31T12:35:00;95587.38;;;26.82;39.52
20077;BME280;12348;42.710;23.378;2022-10-31T12:37:41;95582.22;;;26.80;39.26
20077;BME280;12348;42.710;23.378;2022-10-31T12:40:26;95580.66;;;26.83;39.48
20077;BME280;12348;42.710;23.378;2022-10-31T12:43:08;95572.81;;;26.92;39.46
20077;BME280;12348;42.710;23.378;2022-10-31T12:45:51;95577.13;;;26.86;39.73
20077;BME280;12348;42.710;23.378;2022-10-31T12:48:38;95576.16;;;27.12;39.14
20077;BME280;12348;42.710;23.378;2022-10-31T12:51:17;95582.91;;;26.67;39.16
20077;BME280;12348;42.710;23.378;2022-10-31T12:53:59;95592.16;;;26.03;40.40
20077;BME280;12348;42.710;23.378;2022-10-31T12:56:41;95587.31;;;25.63;41.26
20077;BME280;12348;42.710;23.378;2022-10-31T12:59:17;95591.59;;;25.04;42.69
20077;BME280;12348;42.710;23.378;2022-10-31T13:01:50;95585.50;;;25.14;42.04
20077;BME280;12348;42.710;23.378;2022-10-31T13:04:21;95591.28;;;24.82;43.25
20077;BME280;12348;42.710;23.378;2022-10-31T13:06:54;95591.22;;;24.79;43.15